Terminal Aerodrome Forecast
Issued by NWS

Home | Current Version | Previous Version | Text Only | Print | Product List | Glossary On
Versions: 1 2 3 4 5 6 7 8 9 10 11 12 13 14
000
FTUS45 KABQ 122000 AAA
TAFSAF
TAF AMD
KSAF 122034Z 1221/1318 12008KT P6SM VCTS SCT100CB
      TEMPO 1221/1223 VRB15G25KT -TSRA BKN080CB
     FM130100 12009KT P6SM SCT090=

USA.gov is the U.S. government's official web portal to all federal, state and local government web resources and services.